sensor_id;sensor_type;location;lat;lon;timestamp;pressure;altitude;pressure_sealevel;temperature;humidity
19457;BME280;9867;48.094;11.478;2022-09-09T00:01:23;95005.44;;;16.90;100.00
19457;BME280;9867;48.094;11.478;2022-09-09T00:03:59;94996.25;;;16.82;100.00
19457;BME280;9867;48.094;11.478;2022-09-09T00:06:30;95002.16;;;16.61;100.00
19457;BME280;9867;48.094;11.478;2022-09-09T00:09:05;94991.56;;;16.46;100.00
19457;BME280;9867;48.094;11.478;2022-09-09T00:11:40;94998.78;;;16.44;100.00
19457;BME280;9867;48.094;11.478;2022-09-09T00:14:14;95001.47;;;16.49;100.00
19457;BME280;9867;48.094;11.478;2022-09-09T00:16:50;94996.06;;;16.50;100.00
19457;BME280;9867;48.094;11.478;2022-09-09T00:19:24;94998.69;;;16.55;100.00
19457;BME280;9867;48.094;11.478;2022-09-09T00:22:03;94997.13;;;16.54;100.00
19457;BME280;9867;48.094;11.478;2022-09-09T00:24:39;94995.28;;;16.50;100.00
19457;BME280;9867;48.094;11.478;2022-09-09T00:27:16;94987.97;;;16.47;100.00
19457;BME280;9867;48.094;11.478;2022-09-09T00:29:51;94983.19;;;16.38;100.00
19457;BME280;9867;48.094;11.478;2022-09-09T00:32:21;94984.28;;;16.43;100.00
19457;BME280;9867;48.094;11.478;2022-09-09T00:34:51;94991.72;;;16.56;100.00
19457;BME280;9867;48.094;11.478;2022-09-09T00:37:22;94998.47;;;16.57;100.00
19457;BME280;9867;48.094;11.478;2022-09-09T00:39:56;94992.22;;;16.53;100.00
19457;BME280;9867;48.094;11.478;2022-09-09T00:42:32;95000.03;;;16.58;100.00
19457;BME280;9867;48.094;11.478;2022-09-09T00:45:23;94999.25;;;16.41;100.00
19457;BME280;9867;48.094;11.478;2022-09-09T00:47:54;95002.41;;;16.26;100.00
19457;BME280;9867;48.094;11.478;2022-09-09T00:50:35;95004.53;;;16.29;100.00
19457;BME280;9867;48.094;11.478;2022-09-09T00:56:09;94996.41;;;16.09;100.00
19457;BME280;9867;48.094;11.478;2022-09-09T00:58:42;94999.53;;;15.94;100.00
19457;BME280;9867;48.094;11.478;2022-09-09T01:01:12;95000.75;;;16.03;100.00
19457;BME280;9867;48.094;11.478;2022-09-09T01:03:44;94994.78;;;16.02;100.00
19457;BME280;9867;48.094;11.478;2022-09-09T01:06:16;94998.94;;;16.03;100.00
19457;BME280;9867;48.094;11.478;2022-09-09T01:09:02;94996.34;;;16.03;100.00
19457;BME280;9867;48.094;11.478;2022-09-09T01:11:37;95004.47;;;15.95;100.00
19457;BME280;9867;48.094;11.478;2022-09-09T01:14:18;94977.44;;;16.03;100.00
19457;BME280;9867;48.094;11.478;2022-09-09T01:16:48;95012.13;;;16.19;100.00
19457;BME280;9867;48.094;11.478;2022-09-09T01:19:21;95000.97;;;16.18;100.00
19457;BME280;9867;48.094;11.478;2022-09-09T01:22:01;94994.88;;;16.24;100.00
19457;BME280;9867;48.094;11.478;2022-09-09T01:24:38;94990.44;;;16.08;100.00
19457;BME280;9867;48.094;11.478;2022-09-09T01:27:18;94994.78;;;16.02;100.00
19457;BME280;9867;48.094;11.478;2022-09-09T01:29:47;94991.63;;;16.00;100.00
19457;BME280;9867;48.094;11.478;2022-09-09T01:32:39;94994.91;;;15.96;100.00
19457;BME280;9867;48.094;11.478;2022-09-09T01:35:11;95001.19;;;16.00;100.00
19457;BME280;9867;48.094;11.478;2022-09-09T01:37:41;94993.91;;;15.97;100.00
19457;BME280;9867;48.094;11.478;2022-09-09T01:40:09;94988.50;;;15.98;100.00
19457;BME280;9867;48.094;11.478;2022-09-09T01:42:39;94992.94;;;15.86;100.00
19457;BME280;9867;48.094;11.478;2022-09-09T01:45:08;94997.38;;;15.74;100.00
19457;BME280;9867;48.094;11.478;2022-09-09T01:47:37;94989.78;;;15.84;100.00
19457;BME280;9867;48.094;11.478;2022-09-09T01:50:17;94986.59;;;15.94;100.00
19457;BME280;9867;48.094;11.478;2022-09-09T01:52:47;94993.69;;;16.15;100.00
19457;BME280;9867;48.094;11.478;2022-09-09T01:55:30;94999.50;;;16.22;100.00
19457;BME280;9867;48.094;11.478;2022-09-09T01:58:13;94992.75;;;16.21;100.00
19457;BME280;9867;48.094;11.478;2022-09-09T02:01:01;94996.91;;;16.22;100.00
19457;BME280;9867;48.094;11.478;2022-09-09T02:03:32;94983.63;;;16.02;100.00
19457;BME280;9867;48.094;11.478;2022-09-09T02:06:17;95003.00;;;16.16;100.00
19457;BME280;9867;48.094;11.478;2022-09-09T02:08:55;94991.09;;;16.15;100.00
19457;BME280;9867;48.094;11.478;2022-09-09T02:11:25;94975.09;;;16.01;100.00
19457;BME280;9867;48.094;11.478;2022-09-09T02:14:16;94980.97;;;16.30;100.00
19457;BME280;9867;48.094;11.478;2022-09-09T02:16:50;94968.56;;;16.32;100.00
19457;BME280;9867;48.094;11.478;2022-09-09T02:19:25;94976.19;;;16.22;100.00
19457;BME280;9867;48.094;11.478;2022-09-09T02:22:10;94979.16;;;16.14;100.00
19457;BME280;9867;48.094;11.478;2022-09-09T02:24:39;94980.19;;;15.96;100.00
19457;BME280;9867;48.094;11.478;2022-09-09T02:27:15;94973.66;;;15.77;100.00
19457;BME280;9867;48.094;11.478;2022-09-09T02:29:46;94989.16;;;15.77;100.00
19457;BME280;9867;48.094;11.478;2022-09-09T02:32:20;94970.72;;;15.74;100.00
19457;BME280;9867;48.094;11.478;2022-09-09T02:34:53;94971.06;;;15.77;100.00
19457;BME280;9867;48.094;11.478;2022-09-09T02:37:26;94978.78;;;16.06;100.00
19457;BME280;9867;48.094;11.478;2022-09-09T02:39:56;94974.53;;;15.99;100.00
19457;BME280;9867;48.094;11.478;2022-09-09T02:42:24;94976.63;;;15.86;100.00
19457;BME280;9867;48.094;11.478;2022-09-09T02:44:55;94965.56;;;15.90;100.00
19457;BME280;9867;48.094;11.478;2022-09-09T02:47:27;94978.81;;;15.77;100.00
19457;BME280;9867;48.094;11.478;2022-09-09T02:50:08;94960.72;;;15.77;100.00
19457;BME280;9867;48.094;11.478;2022-09-09T02:52:47;94959.22;;;15.81;100.00
19457;BME280;9867;48.094;11.478;2022-09-09T02:55:24;94966.13;;;15.76;100.00
19457;BME280;9867;48.094;11.478;2022-09-09T02:57:56;94964.41;;;15.81;100.00
19457;BME280;9867;48.094;11.478;2022-09-09T03:00:29;94964.78;;;15.90;100.00
19457;BME280;9867;48.094;11.478;2022-09-09T03:03:03;94962.75;;;15.92;100.00
19457;BME280;9867;48.094;11.478;2022-09-09T03:05:33;94957.34;;;16.10;100.00
19457;BME280;9867;48.094;11.478;2022-09-09T03:08:01;94950.22;;;16.17;100.00
19457;BME280;9867;48.094;11.478;2022-09-09T03:10:29;94967.38;;;15.90;100.00
19457;BME280;9867;48.094;11.478;2022-09-09T03:12:58;94967.63;;;15.88;100.00
19457;BME280;9867;48.094;11.478;2022-09-09T03:15:30;94960.25;;;16.14;100.00
19457;BME280;9867;48.094;11.478;2022-09-09T03:17:59;94949.22;;;16.18;100.00
19457;BME280;9867;48.094;11.478;2022-09-09T03:20:29;94965.63;;;16.24;100.00
19457;BME280;9867;48.094;11.478;2022-09-09T03:22:59;94963.41;;;16.16;100.00
19457;BME280;9867;48.094;11.478;2022-09-09T03:25:30;94953.28;;;15.97;100.00
19457;BME280;9867;48.094;11.478;2022-09-09T03:27:59;94969.22;;;16.06;100.00
19457;BME280;9867;48.094;11.478;2022-09-09T03:30:27;94959.81;;;16.00;100.00
19457;BME280;9867;48.094;11.478;2022-09-09T03:32:57;94954.94;;;16.03;100.00
19457;BME280;9867;48.094;11.478;2022-09-09T03:35:30;94958.13;;;16.11;100.00
19457;BME280;9867;48.094;11.478;2022-09-09T03:37:58;94947.78;;;15.94;100.00
19457;BME280;9867;48.094;11.478;2022-09-09T03:40:29;94952.25;;;15.82;100.00
19457;BME280;9867;48.094;11.478;2022-09-09T03:42:58;94955.38;;;15.84;100.00
19457;BME280;9867;48.094;11.478;2022-09-09T03:45:26;94957.03;;;15.90;100.00
19457;BME280;9867;48.094;11.478;2022-09-09T03:47:55;94959.50;;;15.68;100.00
19457;BME280;9867;48.094;11.478;2022-09-09T03:50:25;94955.84;;;15.52;100.00
19457;BME280;9867;48.094;11.478;2022-09-09T03:52:53;94963.50;;;15.59;100.00
19457;BME280;9867;48.094;11.478;2022-09-09T03:55:21;94959.44;;;15.51;100.00
19457;BME280;9867;48.094;11.478;2022-09-09T03:57:50;94951.22;;;15.54;100.00
19457;BME280;9867;48.094;11.478;2022-09-09T04:00:18;94951.22;;;15.54;100.00
19457;BME280;9867;48.094;11.478;2022-09-09T04:02:51;94934.34;;;15.63;100.00
19457;BME280;9867;48.094;11.478;2022-09-09T04:05:20;94950.44;;;15.54;100.00
19457;BME280;9867;48.094;11.478;2022-09-09T04:07:49;94945.03;;;15.55;100.00
19457;BME280;9867;48.094;11.478;2022-09-09T04:10:18;94950.66;;;15.52;100.00
19457;BME280;9867;48.094;11.478;2022-09-09T04:12:48;94941.50;;;15.73;100.00
19457;BME280;9867;48.094;11.478;2022-09-09T04:15:16;94932.63;;;15.69;100.00
19457;BME280;9867;48.094;11.478;2022-09-09T04:17:45;94931.19;;;15.61;100.00
19457;BME280;9867;48.094;11.478;2022-09-09T04:20:14;94934.28;;;15.75;100.00
19457;BME280;9867;48.094;11.478;2022-09-09T04:22:42;94941.75;;;15.60;100.00
19457;BME280;9867;48.094;11.478;2022-09-09T04:25:11;94925.84;;;15.96;100.00
19457;BME280;9867;48.094;11.478;2022-09-09T04:27:40;94928.25;;;15.86;100.00
19457;BME280;9867;48.094;11.478;2022-09-09T04:30:10;94911.78;;;15.92;100.00
19457;BME280;9867;48.094;11.478;2022-09-09T04:32:40;94916.91;;;16.04;100.00
19457;BME280;9867;48.094;11.478;2022-09-09T04:35:08;94924.19;;;16.07;100.00
19457;BME280;9867;48.094;11.478;2022-09-09T04:37:36;94909.53;;;15.96;100.00
19457;BME280;9867;48.094;11.478;2022-09-09T04:40:05;94921.69;;;15.79;100.00
19457;BME280;9867;48.094;11.478;2022-09-09T04:42:38;94919.28;;;15.60;100.00
19457;BME280;9867;48.094;11.478;2022-09-09T04:45:12;94921.78;;;15.55;100.00
19457;BME280;9867;48.094;11.478;2022-09-09T04:47:41;94918.22;;;15.45;100.00
19457;BME280;9867;48.094;11.478;2022-09-09T04:50:09;94918.34;;;15.38;100.00
19457;BME280;9867;48.094;11.478;2022-09-09T04:52:38;94910.88;;;15.53;100.00
19457;BME280;9867;48.094;11.478;2022-09-09T04:55:08;94919.94;;;15.84;100.00
19457;BME280;9867;48.094;11.478;2022-09-09T04:57:38;94920.19;;;15.99;100.00
19457;BME280;9867;48.094;11.478;2022-09-09T05:00:07;94923.72;;;16.10;100.00
19457;BME280;9867;48.094;11.478;2022-09-09T05:02:39;94918.72;;;16.03;100.00
19457;BME280;9867;48.094;11.478;2022-09-09T05:05:08;94931.63;;;15.87;100.00
19457;BME280;9867;48.094;11.478;2022-09-09T05:07:38;94925.56;;;15.64;100.00
19457;BME280;9867;48.094;11.478;2022-09-09T05:10:07;94936.88;;;15.47;100.00
19457;BME280;9867;48.094;11.478;2022-09-09T05:12:35;94929.19;;;15.23;100.00
19457;BME280;9867;48.094;11.478;2022-09-09T05:15:05;94932.00;;;15.22;100.00
19457;BME280;9867;48.094;11.478;2022-09-09T05:17:34;94929.56;;;15.15;100.00
19457;BME280;9867;48.094;11.478;2022-09-09T05:20:04;94929.56;;;15.15;100.00
19457;BME280;9867;48.094;11.478;2022-09-09T05:22:35;94934.00;;;15.60;100.00
19457;BME280;9867;48.094;11.478;2022-09-09T05:25:04;94933.38;;;15.81;100.00
19457;BME280;9867;48.094;11.478;2022-09-09T05:27:33;94938.03;;;15.67;100.00
19457;BME280;9867;48.094;11.478;2022-09-09T05:30:01;94950.34;;;15.49;100.00
19457;BME280;9867;48.094;11.478;2022-09-09T05:32:32;94948.06;;;15.64;100.00
19457;BME280;9867;48.094;11.478;2022-09-09T05:35:00;94949.09;;;15.51;100.00
19457;BME280;9867;48.094;11.478;2022-09-09T05:37:30;94946.03;;;15.66;100.00
19457;BME280;9867;48.094;11.478;2022-09-09T05:39:59;94948.47;;;15.73;100.00
19457;BME280;9867;48.094;11.478;2022-09-09T05:42:30;94939.75;;;15.62;100.00
19457;BME280;9867;48.094;11.478;2022-09-09T05:44:59;94950.19;;;15.67;100.00
19457;BME280;9867;48.094;11.478;2022-09-09T05:47:27;94939.72;;;15.90;100.00
19457;BME280;9867;48.094;11.478;2022-09-09T05:49:56;94948.88;;;15.81;100.00
19457;BME280;9867;48.094;11.478;2022-09-09T05:52:24;94948.00;;;15.76;100.00
19457;BME280;9867;48.094;11.478;2022-09-09T05:54:55;94960.72;;;15.77;100.00
19457;BME280;9867;48.094;11.478;2022-09-09T05:57:23;94952.94;;;15.77;100.00
19457;BME280;9867;48.094;11.478;2022-09-09T05:59:51;94968.69;;;15.76;100.00
19457;BME280;9867;48.094;11.478;2022-09-09T06:02:20;94959.38;;;15.75;100.00
19457;BME280;9867;48.094;11.478;2022-09-09T06:04:49;94968.78;;;15.81;100.00
19457;BME280;9867;48.094;11.478;2022-09-09T06:07:18;94966.81;;;15.88;100.00
19457;BME280;9867;48.094;11.478;2022-09-09T06:09:46;94965.91;;;15.94;100.00
19457;BME280;9867;48.094;11.478;2022-09-09T06:12:14;94962.22;;;15.90;100.00
19457;BME280;9867;48.094;11.478;2022-09-09T06:14:42;94964.00;;;15.89;100.00
19457;BME280;9867;48.094;11.478;2022-09-09T06:17:15;94962.53;;;15.93;100.00
19457;BME280;9867;48.094;11.478;2022-09-09T06:19:43;94968.66;;;16.04;100.00
19457;BME280;9867;48.094;11.478;2022-09-09T06:22:11;94959.00;;;15.99;100.00
19457;BME280;9867;48.094;11.478;2022-09-09T06:24:41;94959.00;;;15.99;100.00
19457;BME280;9867;48.094;11.478;2022-09-09T06:27:09;94941.38;;;15.96;100.00
19457;BME280;9867;48.094;11.478;2022-09-09T06:29:37;94950.22;;;16.34;100.00
19457;BME280;9867;48.094;11.478;2022-09-09T06:32:06;94957.06;;;16.40;100.00
19457;BME280;9867;48.094;11.478;2022-09-09T06:34:35;94952.81;;;16.34;100.00
19457;BME280;9867;48.094;11.478;2022-09-09T06:37:03;94959.25;;;16.31;100.00
19457;BME280;9867;48.094;11.478;2022-09-09T06:39:44;94961.81;;;16.31;100.00
19457;BME280;9867;48.094;11.478;2022-09-09T06:42:12;94972.34;;;16.42;100.00
19457;BME280;9867;48.094;11.478;2022-09-09T06:44:53;94971.72;;;16.51;100.00
19457;BME280;9867;48.094;11.478;2022-09-09T06:47:35;94969.59;;;16.48;100.00
19457;BME280;9867;48.094;11.478;2022-09-09T06:50:04;94962.63;;;16.49;100.00
19457;BME280;9867;48.094;11.478;2022-09-09T06:52:34;94975.72;;;16.42;100.00
19457;BME280;9867;48.094;11.478;2022-09-09T06:55:05;94974.38;;;16.40;100.00
19457;BME280;9867;48.094;11.478;2022-09-09T06:57:35;94972.25;;;16.36;100.00
19457;BME280;9867;48.094;11.478;2022-09-09T07:00:13;94986.47;;;16.34;100.00
19457;BME280;9867;48.094;11.478;2022-09-09T07:02:44;94983.72;;;16.24;100.00
19457;BME280;9867;48.094;11.478;2022-09-09T07:05:13;94983.41;;;16.20;100.00
19457;BME280;9867;48.094;11.478;2022-09-09T07:07:43;94992.28;;;16.24;100.00
19457;BME280;9867;48.094;11.478;2022-09-09T07:10:14;94986.88;;;16.43;100.00
19457;BME280;9867;48.094;11.478;2022-09-09T07:12:43;95010.25;;;16.48;100.00
19457;BME280;9867;48.094;11.478;2022-09-09T07:15:12;95032.59;;;16.37;100.00
19457;BME280;9867;48.094;11.478;2022-09-09T07:17:43;95010.84;;;16.55;100.00
19457;BME280;9867;48.094;11.478;2022-09-09T07:20:12;95016.47;;;16.63;100.00
19457;BME280;9867;48.094;11.478;2022-09-09T07:22:41;95017.00;;;16.82;100.00
19457;BME280;9867;48.094;11.478;2022-09-09T07:25:09;95022.28;;;16.70;100.00
19457;BME280;9867;48.094;11.478;2022-09-09T07:27:39;95025.41;;;16.73;100.00
19457;BME280;9867;48.094;11.478;2022-09-09T07:30:08;95028.84;;;16.78;100.00
19457;BME280;9867;48.094;11.478;2022-09-09T07:32:36;95025.25;;;16.96;100.00
19457;BME280;9867;48.094;11.478;2022-09-09T07:35:05;95026.78;;;17.35;100.00
19457;BME280;9867;48.094;11.478;2022-09-09T07:37:36;95024.72;;;17.59;100.00
19457;BME280;9867;48.094;11.478;2022-09-09T07:40:05;95038.88;;;17.68;100.00
19457;BME280;9867;48.094;11.478;2022-09-09T07:42:34;95030.34;;;18.00;100.00
19457;BME280;9867;48.094;11.478;2022-09-09T07:45:05;95040.50;;;18.01;100.00
19457;BME280;9867;48.094;11.478;2022-09-09T07:47:33;95046.16;;;17.93;100.00
19457;BME280;9867;48.094;11.478;2022-09-09T07:50:02;95044.38;;;17.99;100.00
19457;BME280;9867;48.094;11.478;2022-09-09T07:52:31;95038.44;;;18.03;100.00
19457;BME280;9867;48.094;11.478;2022-09-09T07:55:03;95042.50;;;18.21;100.00
19457;BME280;9867;48.094;11.478;2022-09-09T07:57:32;95054.94;;;18.19;100.00
19457;BME280;9867;48.094;11.478;2022-09-09T08:00:02;95041.63;;;18.37;100.00
19457;BME280;9867;48.094;11.478;2022-09-09T08:02:39;95036.69;;;18.36;100.00
19457;BME280;9867;48.094;11.478;2022-09-09T08:05:09;95040.63;;;18.44;100.00
19457;BME280;9867;48.094;11.478;2022-09-09T08:07:39;95058.00;;;18.43;100.00
19457;BME280;9867;48.094;11.478;2022-09-09T08:10:07;95054.16;;;18.46;100.00
19457;BME280;9867;48.094;11.478;2022-09-09T08:12:37;95067.13;;;18.40;100.00
19457;BME280;9867;48.094;11.478;2022-09-09T08:15:13;95074.59;;;18.37;100.00
19457;BME280;9867;48.094;11.478;2022-09-09T08:17:44;95083.19;;;18.37;100.00
19457;BME280;9867;48.094;11.478;2022-09-09T08:20:12;95074.50;;;18.54;100.00
19457;BME280;9867;48.094;11.478;2022-09-09T08:22:41;95069.28;;;18.54;100.00
19457;BME280;9867;48.094;11.478;2022-09-09T08:25:09;95077.56;;;18.78;100.00
19457;BME280;9867;48.094;11.478;2022-09-09T08:27:37;95081.88;;;18.67;100.00
19457;BME280;9867;48.094;11.478;2022-09-09T08:30:07;95084.34;;;18.52;100.00
19457;BME280;9867;48.094;11.478;2022-09-09T08:32:35;95070.16;;;18.32;100.00
19457;BME280;9867;48.094;11.478;2022-09-09T08:35:08;95077.69;;;18.34;100.00
19457;BME280;9867;48.094;11.478;2022-09-09T08:37:37;95084.59;;;18.23;100.00
19457;BME280;9867;48.094;11.478;2022-09-09T08:40:09;95081.44;;;18.21;100.00
19457;BME280;9867;48.094;11.478;2022-09-09T08:42:48;95080.91;;;17.92;100.00
19457;BME280;9867;48.094;11.478;2022-09-09T08:45:34;95081.81;;;17.81;100.00
19457;BME280;9867;48.094;11.478;2022-09-09T08:48:15;95089.44;;;17.66;100.00
19457;BME280;9867;48.094;11.478;2022-09-09T08:50:49;95082.50;;;17.55;100.00
19457;BME280;9867;48.094;11.478;2022-09-09T08:53:27;95088.72;;;17.70;100.00
19457;BME280;9867;48.094;11.478;2022-09-09T08:55:59;95081.19;;;17.96;100.00
19457;BME280;9867;48.094;11.478;2022-09-09T08:58:53;95073.13;;;17.92;100.00
19457;BME280;9867;48.094;11.478;2022-09-09T09:01:50;95073.41;;;17.96;100.00
19457;BME280;9867;48.094;11.478;2022-09-09T09:04:58;95070.63;;;18.02;100.00
19457;BME280;9867;48.094;11.478;2022-09-09T09:07:53;95078.69;;;17.79;100.00
19457;BME280;9867;48.094;11.478;2022-09-09T09:10:40;95080.41;;;17.95;100.00
19457;BME280;9867;48.094;11.478;2022-09-09T09:13:17;95072.69;;;18.00;100.00
19457;BME280;9867;48.094;11.478;2022-09-09T09:15:52;95071.72;;;18.06;100.00
19457;BME280;9867;48.094;11.478;2022-09-09T09:18:21;95064.69;;;17.80;100.00
19457;BME280;9867;48.094;11.478;2022-09-09T09:20:55;95075.53;;;17.77;100.00
19457;BME280;9867;48.094;11.478;2022-09-09T09:23:35;95075.22;;;17.95;100.00
19457;BME280;9867;48.094;11.478;2022-09-09T09:26:09;95084.66;;;18.28;100.00
19457;BME280;9867;48.094;11.478;2022-09-09T09:28:40;95084.25;;;18.68;100.00
19457;BME280;9867;48.094;11.478;2022-09-09T09:31:14;95090.75;;;18.66;100.00
19457;BME280;9867;48.094;11.478;2022-09-09T09:33:48;95086.81;;;18.63;100.00
19457;BME280;9867;48.094;11.478;2022-09-09T09:36:19;95084.78;;;18.70;100.00
19457;BME280;9867;48.094;11.478;2022-09-09T09:38:54;95090.63;;;18.56;100.00
19457;BME280;9867;48.094;11.478;2022-09-09T09:41:44;95090.28;;;18.74;100.00
19457;BME280;9867;48.094;11.478;2022-09-09T09:44:26;95084.56;;;18.77;100.00
19457;BME280;9867;48.094;11.478;2022-09-09T09:47:07;95097.47;;;18.62;100.00
19457;BME280;9867;48.094;11.478;2022-09-09T09:49:36;95097.03;;;18.48;100.00
19457;BME280;9867;48.094;11.478;2022-09-09T09:52:05;95058.59;;;18.18;100.00
19457;BME280;9867;48.094;11.478;2022-09-09T09:54:39;95089.22;;;18.16;100.00
19457;BME280;9867;48.094;11.478;2022-09-09T09:57:10;95081.84;;;18.08;100.00
19457;BME280;9867;48.094;11.478;2022-09-09T09:59:40;95086.91;;;17.93;100.00
19457;BME280;9867;48.094;11.478;2022-09-09T10:02:25;95089.59;;;17.81;100.00
19457;BME280;9867;48.094;11.478;2022-09-09T10:05:02;95080.88;;;17.65;100.00
19457;BME280;9867;48.094;11.478;2022-09-09T10:07:32;95086.19;;;17.59;100.00
19457;BME280;9867;48.094;11.478;2022-09-09T10:10:12;95074.97;;;17.53;100.00
19457;BME280;9867;48.094;11.478;2022-09-09T10:12:52;95078.03;;;17.50;100.00
19457;BME280;9867;48.094;11.478;2022-09-09T10:15:32;95082.09;;;17.63;100.00
19457;BME280;9867;48.094;11.478;2022-09-09T10:18:17;95082.28;;;17.56;100.00
19457;BME280;9867;48.094;11.478;2022-09-09T10:20:55;95082.88;;;17.63;100.00
19457;BME280;9867;48.094;11.478;2022-09-09T10:23:42;95089.78;;;17.75;100.00
19457;BME280;9867;48.094;11.478;2022-09-09T10:26:32;95094.00;;;18.02;100.00
19457;BME280;9867;48.094;11.478;2022-09-09T10:29:17;95093.38;;;18.17;100.00
19457;BME280;9867;48.094;11.478;2022-09-09T10:32:00;95086.59;;;18.43;100.00
19457;BME280;9867;48.094;11.478;2022-09-09T10:34:48;95091.00;;;18.64;100.00
19457;BME280;9867;48.094;11.478;2022-09-09T10:37:30;95090.13;;;18.91;100.00
19457;BME280;9867;48.094;11.478;2022-09-09T10:40:20;95093.59;;;19.01;100.00
19457;BME280;9867;48.094;11.478;2022-09-09T10:42:58;95102.53;;;19.16;100.00
19457;BME280;9867;48.094;11.478;2022-09-09T10:45:31;95106.03;;;18.94;100.00
19457;BME280;9867;48.094;11.478;2022-09-09T10:48:35;95103.13;;;18.86;100.00
19457;BME280;9867;48.094;11.478;2022-09-09T10:51:21;95098.16;;;18.84;100.00
19457;BME280;9867;48.094;11.478;2022-09-09T10:54:04;95101.97;;;19.08;100.00
19457;BME280;9867;48.094;11.478;2022-09-09T10:56:36;95100.16;;;19.09;100.00
19457;BME280;9867;48.094;11.478;2022-09-09T10:59:12;95100.16;;;19.14;100.00
19457;BME280;9867;48.094;11.478;2022-09-09T11:01:44;95105.84;;;19.48;100.00
19457;BME280;9867;48.094;11.478;2022-09-09T11:04:17;95104.50;;;19.40;100.00
19457;BME280;9867;48.094;11.478;2022-09-09T11:06:50;95104.13;;;19.59;100.00
19457;BME280;9867;48.094;11.478;2022-09-09T11:09:22;95107.19;;;19.51;100.00
19457;BME280;9867;48.094;11.478;2022-09-09T11:11:53;95101.25;;;19.60;100.00
19457;BME280;9867;48.094;11.478;2022-09-09T11:14:28;95102.03;;;19.61;100.00
19457;BME280;9867;48.094;11.478;2022-09-09T11:17:06;95103.41;;;19.79;100.00
19457;BME280;9867;48.094;11.478;2022-09-09T11:19:39;95100.31;;;19.87;100.00
19457;BME280;9867;48.094;11.478;2022-09-09T11:22:15;95103.53;;;20.14;100.00
19457;BME280;9867;48.094;11.478;2022-09-09T11:24:50;95105.34;;;20.14;100.00
19457;BME280;9867;48.094;11.478;2022-09-09T11:27:24;95101.16;;;20.02;100.00
19457;BME280;9867;48.094;11.478;2022-09-09T11:30:10;95111.13;;;20.36;100.00
19457;BME280;9867;48.094;11.478;2022-09-09T11:33:13;95103.91;;;20.48;100.00
19457;BME280;9867;48.094;11.478;2022-09-09T11:35:57;95103.56;;;20.24;100.00
19457;BME280;9867;48.094;11.478;2022-09-09T11:38:39;95100.06;;;19.93;100.00
19457;BME280;9867;48.094;11.478;2022-09-09T11:41:11;95100.41;;;20.07;100.00
19457;BME280;9867;48.094;11.478;2022-09-09T11:43:48;95105.06;;;20.10;100.00
19457;BME280;9867;48.094;11.478;2022-09-09T11:46:20;95098.63;;;20.28;100.00
19457;BME280;9867;48.094;11.478;2022-09-09T11:48:58;95089.78;;;20.39;100.00
19457;BME280;9867;48.094;11.478;2022-09-09T11:51:28;95096.84;;;20.59;100.00
19457;BME280;9867;48.094;11.478;2022-09-09T11:53:58;95097.38;;;20.71;100.00
19457;BME280;9867;48.094;11.478;2022-09-09T11:56:29;95095.28;;;20.48;100.00
19457;BME280;9867;48.094;11.478;2022-09-09T11:59:00;95095.53;;;20.56;100.00
19457;BME280;9867;48.094;11.478;2022-09-09T12:01:42;95100.19;;;20.29;100.00
19457;BME280;9867;48.094;11.478;2022-09-09T12:04:28;95101.22;;;20.28;100.00
19457;BME280;9867;48.094;11.478;2022-09-09T12:06:59;95104.41;;;20.45;100.00
19457;BME280;9867;48.094;11.478;2022-09-09T12:09:40;95100.00;;;20.91;100.00
19457;BME280;9867;48.094;11.478;2022-09-09T12:12:26;95095.56;;;20.76;100.00
19457;BME280;9867;48.094;11.478;2022-09-09T12:14:58;95091.63;;;21.04;100.00
19457;BME280;9867;48.094;11.478;2022-09-09T12:17:30;95092.94;;;21.12;100.00
19457;BME280;9867;48.094;11.478;2022-09-09T12:20:04;95085.63;;;21.19;100.00
19457;BME280;9867;48.094;11.478;2022-09-09T12:22:43;95087.22;;;21.25;100.00
19457;BME280;9867;48.094;11.478;2022-09-09T12:25:23;95083.00;;;21.29;100.00
19457;BME280;9867;48.094;11.478;2022-09-09T12:28:04;95085.63;;;21.14;100.00
19457;BME280;9867;48.094;11.478;2022-09-09T12:30:41;95078.56;;;21.15;100.00
19457;BME280;9867;48.094;11.478;2022-09-09T12:33:18;95080.97;;;20.70;100.00
19457;BME280;9867;48.094;11.478;2022-09-09T12:35:52;95082.50;;;20.82;100.00
19457;BME280;9867;48.094;11.478;2022-09-09T12:38:29;95074.44;;;20.68;100.00
19457;BME280;9867;48.094;11.478;2022-09-09T12:40:59;95082.00;;;20.44;100.00
19457;BME280;9867;48.094;11.478;2022-09-09T12:43:28;95080.94;;;20.55;100.00
19457;BME280;9867;48.094;11.478;2022-09-09T12:45:58;95075.41;;;20.36;100.00
19457;BME280;9867;48.094;11.478;2022-09-09T12:48:33;95076.72;;;20.34;100.00
19457;BME280;9867;48.094;11.478;2022-09-09T12:51:05;95072.06;;;20.31;100.00
19457;BME280;9867;48.094;11.478;2022-09-09T12:53:36;95075.50;;;20.52;100.00
19457;BME280;9867;48.094;11.478;2022-09-09T12:56:07;95067.91;;;20.55;100.00
19457;BME280;9867;48.094;11.478;2022-09-09T12:58:36;95064.22;;;20.36;100.00
19457;BME280;9867;48.094;11.478;2022-09-09T13:01:17;95065.28;;;20.30;100.00
19457;BME280;9867;48.094;11.478;2022-09-09T13:03:48;95066.63;;;20.48;100.00
19457;BME280;9867;48.094;11.478;2022-09-09T13:06:20;95064.72;;;20.18;100.00
19457;BME280;9867;48.094;11.478;2022-09-09T13:08:55;95067.91;;;20.45;100.00
19457;BME280;9867;48.094;11.478;2022-09-09T13:11:27;95059.59;;;20.73;100.00
19457;BME280;9867;48.094;11.478;2022-09-09T13:13:57;95064.78;;;20.58;100.00
19457;BME280;9867;48.094;11.478;2022-09-09T13:16:27;95050.72;;;20.74;100.00
19457;BME280;9867;48.094;11.478;2022-09-09T13:19:00;95052.50;;;21.25;100.00
19457;BME280;9867;48.094;11.478;2022-09-09T13:21:33;95048.31;;;21.19;100.00
19457;BME280;9867;48.094;11.478;2022-09-09T13:24:03;95044.69;;;21.25;100.00
19457;BME280;9867;48.094;11.478;2022-09-09T13:26:31;95041.03;;;20.90;100.00